Time;durP1;ratioP1;P1;durP2;ratioP2;P2;SDS_P1;SDS_P2;PMS_P1;PMS_P2;Temp;Humidity;BMP_temperature;BMP_pressure;BME280_temperature;BME280_humidity;BME280_pressure;Samples;Min_cycle;Max_cycle;Signal;HPM_P1;HPM_P2
2023/05/17 00:01:56;;;;;;;3.30;1.75;;;;;;;23.88;40.71;102362.00;5029162;27;96734;-74
2023/05/17 00:04:23;;;;;;;2.13;1.30;;;;;;;23.88;40.29;102359.25;5030544;27;97798;-74
2023/05/17 00:06:49;;;;;;;3.03;1.42;;;;;;;23.88;40.29;102359.25;5033630;27;97419;-75
2023/05/17 00:09:16;;;;;;;2.47;1.55;;;;;;;23.87;40.72;102363.88;5032260;27;97666;-74
2023/05/17 00:11:43;;;;;;;3.30;1.38;;;;;;;23.88;40.34;102362.00;5032614;27;97859;-74
2023/05/17 00:14:10;;;;;;;2.17;1.38;;;;;;;23.87;40.64;102360.28;5044851;27;98869;-74
2023/05/17 00:16:38;;;;;;;2.30;1.50;;;;;;;23.88;40.25;102364.75;5033271;27;97309;-75
2023/05/17 00:19:04;;;;;;;3.05;1.48;;;;;;;23.87;40.33;102374.00;5033349;27;97212;-74
2023/05/17 00:21:31;;;;;;;2.28;1.50;;;;;;;23.86;40.26;102375.88;5031726;27;96852;-74
2023/05/17 00:23:57;;;;;;;2.35;1.48;;;;;;;23.86;40.51;102375.88;5030983;27;97179;-74
2023/05/17 00:26:24;;;;;;;2.20;1.10;;;;;;;23.86;40.45;102377.78;5027557;27;98898;-74
2023/05/17 00:28:50;;;;;;;2.22;1.40;;;;;;;23.86;40.38;102375.88;5030962;27;96725;-74
2023/05/17 00:31:17;;;;;;;1.65;1.45;;;;;;;23.85;40.13;102379.66;5029394;27;96811;-74
2023/05/17 00:33:45;;;;;;;2.55;1.38;;;;;;;23.85;40.36;102371.41;5026309;27;100828;-74
2023/05/17 00:36:12;;;;;;;2.47;1.45;;;;;;;23.85;40.41;102381.53;5030272;27;100978;-74
2023/05/17 00:38:38;;;;;;;2.40;1.10;;;;;;;23.84;40.41;102369.69;5030477;27;97479;-74
2023/05/17 00:41:05;;;;;;;2.28;1.10;;;;;;;23.84;40.12;102372.44;5030697;27;96913;-74
2023/05/17 00:43:32;;;;;;;1.80;1.30;;;;;;;23.83;40.52;102367.97;5030303;27;99805;-74
2023/05/17 00:45:58;;;;;;;2.75;1.20;;;;;;;23.83;40.40;102376.22;5030005;27;98452;-74
2023/05/17 00:48:27;;;;;;;1.98;1.33;;;;;;;23.83;40.28;102373.47;5044193;27;97215;-74
2023/05/17 00:50:55;;;;;;;1.77;1.20;;;;;;;23.82;40.21;102370.88;5032932;27;97471;-74
2023/05/17 00:53:21;;;;;;;1.77;1.17;;;;;;;23.82;40.18;102377.22;5031123;27;97688;-74
2023/05/17 00:55:49;;;;;;;2.78;1.25;;;;;;;23.83;40.24;102372.59;5027041;27;98638;-74
2023/05/17 00:58:16;;;;;;;1.95;1.17;;;;;;;23.83;40.48;102375.34;5041943;27;96769;-74
2023/05/17 01:00:45;;;;;;;2.63;1.83;;;;;;;23.82;40.23;102369.00;5031280;27;96886;-74
2023/05/17 01:03:12;;;;;;;1.77;1.10;;;;;;;23.82;40.10;102365.38;5029928;27;99181;-75
2023/05/17 01:05:39;;;;;;;1.50;0.98;;;;;;;23.83;40.31;102372.59;5028204;27;96870;-74
2023/05/17 01:08:05;;;;;;;1.95;1.02;;;;;;;23.82;40.17;102374.47;5028677;27;96973;-74
2023/05/17 01:10:43;;;;;;;2.40;1.20;;;;;;;23.82;40.02;102377.22;5030239;27;96958;-74
2023/05/17 01:13:18;;;;;;;2.08;1.30;;;;;;;23.81;40.05;102360.91;5034730;27;98049;-74
2023/05/17 01:15:55;;;;;;;2.90;1.13;;;;;;;23.81;40.14;102366.41;5042252;27;99857;-74
2023/05/17 01:18:31;;;;;;;1.58;1.08;;;;;;;23.80;40.09;102372.91;5035496;27;98525;-74
2023/05/17 01:21:00;;;;;;;1.83;1.33;;;;;;;23.79;40.26;102369.31;5034076;27;97256;-74
2023/05/17 01:24:06;;;;;;;1.92;1.00;;;;;;;23.80;40.32;102367.44;5051451;27;100016;-74
2023/05/17 01:26:38;;;;;;;1.70;1.00;;;;;;;23.77;40.36;102371.31;5033733;27;97133;-74
2023/05/17 01:29:08;;;;;;;1.58;0.95;;;;;;;23.76;40.13;102370.47;5047977;27;97380;-74
2023/05/17 01:31:38;;;;;;;1.75;0.80;;;;;;;23.77;40.26;102360.34;5039486;27;96844;-74
2023/05/17 01:34:08;;;;;;;1.90;0.90;;;;;;;23.77;40.26;102365.84;5040717;27;97030;-74
2023/05/17 01:36:35;;;;;;;1.65;0.95;;;;;;;23.75;40.17;102363.25;5031824;27;97646;-74
2023/05/17 01:39:02;;;;;;;1.60;0.98;;;;;;;23.76;40.04;102364.09;5033840;27;96760;-74
2023/05/17 01:41:38;;;;;;;2.30;1.10;;;;;;;23.77;40.16;102360.34;5033456;27;97382;-74
2023/05/17 01:44:05;;;;;;;1.85;1.08;;;;;;;23.76;40.03;102364.09;5033721;27;97732;-74
2023/05/17 01:46:38;;;;;;;1.60;1.00;;;;;;;23.75;40.08;102370.63;5029744;27;96821;-74
2023/05/17 01:49:09;;;;;;;1.65;1.10;;;;;;;23.76;40.12;102364.09;5031342;27;97486;-74
2023/05/17 01:51:46;;;;;;;1.30;0.77;;;;;;;23.75;40.33;102360.50;5035845;27;96923;-75
2023/05/17 01:54:14;;;;;;;2.05;1.08;;;;;;;23.75;40.07;102373.34;5046525;27;98762;-74
2023/05/17 01:56:46;;;;;;;1.73;0.90;;;;;;;23.75;40.05;102362.38;5043148;27;97879;-75
2023/05/17 01:59:20;;;;;;;2.00;0.98;;;;;;;23.75;40.23;102366.00;5041475;27;96712;-74
2023/05/17 02:01:48;;;;;;;1.42;0.93;;;;;;;23.74;40.27;102358.78;5047235;27;97270;-74
2023/05/17 02:04:15;;;;;;;1.27;0.95;;;;;;;23.73;40.42;102365.28;5030181;27;99864;-74
2023/05/17 02:06:41;;;;;;;2.17;1.02;;;;;;;23.73;40.33;102357.06;5041783;27;100215;-74
2023/05/17 02:09:08;;;;;;;1.33;0.82;;;;;;;23.73;40.30;102362.53;5033924;27;96940;-74
2023/05/17 02:11:35;;;;;;;2.38;1.10;;;;;;;23.73;39.98;102359.81;5032720;27;96917;-74
2023/05/17 02:14:02;;;;;;;2.00;1.10;;;;;;;23.74;40.30;102368.91;5031434;27;97800;-74
2023/05/17 02:16:28;;;;;;;1.73;0.85;;;;;;;23.74;40.14;102364.28;5041062;27;99385;-74
2023/05/17 02:18:55;;;;;;;2.00;1.02;;;;;;;23.73;40.21;102364.44;5041285;27;96914;-74
2023/05/17 02:21:22;;;;;;;1.67;1.00;;;;;;;23.73;40.00;102373.53;5046717;27;96811;-74
2023/05/17 02:23:48;;;;;;;1.73;1.02;;;;;;;23.71;39.98;102372.81;5045154;27;99201;-74
2023/05/17 02:26:17;;;;;;;1.77;0.90;;;;;;;23.72;40.08;102370.94;5046141;27;96958;-74
2023/05/17 02:28:44;;;;;;;1.70;0.90;;;;;;;23.72;40.34;102373.69;5031300;27;97068;-74
2023/05/17 02:31:10;;;;;;;1.52;0.85;;;;;;;23.72;40.11;102370.94;5033107;27;96986;-74
2023/05/17 02:33:37;;;;;;;2.63;0.82;;;;;;;23.71;39.75;102369.22;5033315;27;97438;-74
2023/05/17 02:36:04;;;;;;;1.58;0.93;;;;;;;23.71;40.04;102378.31;5031011;27;97607;-74
2023/05/17 02:38:30;;;;;;;3.00;1.13;;;;;;;23.70;39.82;102379.31;5033142;27;97023;-74
2023/05/17 02:40:57;;;;;;;1.67;1.00;;;;;;;23.70;39.94;102376.56;5047282;27;96833;-74
2023/05/17 02:43:23;;;;;;;0.80;0.70;;;;;;;23.71;40.09;102380.19;5034386;27;97607;-74
2023/05/17 02:45:50;;;;;;;1.15;0.77;;;;;;;23.70;39.99;102373.84;5031221;27;97490;-74
2023/05/17 02:48:17;;;;;;;1.75;0.80;;;;;;;23.71;40.16;102377.44;5035087;27;96869;-74
2023/05/17 02:50:44;;;;;;;2.22;1.10;;;;;;;23.70;39.85;102383.94;5037949;27;96893;-74
2023/05/17 02:53:10;;;;;;;1.45;0.90;;;;;;;23.69;40.31;102387.72;5036521;27;100357;-75
2023/05/17 02:55:37;;;;;;;1.27;0.90;;;;;;;23.69;40.10;102390.44;5033779;27;97543;-74
2023/05/17 02:58:03;;;;;;;1.52;0.82;;;;;;;23.69;40.07;102395.94;5046099;27;98265;-74
2023/05/17 03:00:31;;;;;;;1.38;0.80;;;;;;;23.69;40.23;102393.19;5030666;27;97001;-75
2023/05/17 03:02:58;;;;;;;1.67;1.08;;;;;;;23.69;40.31;102401.41;5042913;27;99558;-74
2023/05/17 03:05:24;;;;;;;1.70;0.80;;;;;;;23.69;39.65;102393.19;5030555;27;99367;-74
2023/05/17 03:07:51;;;;;;;1.40;0.85;;;;;;;23.69;39.96;102395.94;5048476;27;97397;-74
2023/05/17 03:10:18;;;;;;;1.77;0.90;;;;;;;23.68;39.88;102406.03;5030939;27;97520;-75
2023/05/17 03:12:45;;;;;;;1.85;0.90;;;;;;;23.69;39.77;102401.41;5035002;27;97592;-74
2023/05/17 03:15:15;;;;;;;1.50;0.80;;;;;;;23.67;39.93;102404.31;5045244;27;99828;-75
2023/05/17 03:17:42;;;;;;;1.08;0.55;;;;;;;23.68;39.77;102410.66;5033696;27;96744;-74
2023/05/17 03:20:09;;;;;;;1.75;0.90;;;;;;;23.67;39.89;102411.69;5046274;27;97221;-75
2023/05/17 03:22:36;;;;;;;1.88;0.90;;;;;;;23.67;40.09;102408.94;5036738;27;99566;-75
2023/05/17 03:25:04;;;;;;;1.60;0.70;;;;;;;23.66;39.85;102413.56;5036602;27;99828;-74
2023/05/17 03:27:32;;;;;;;2.35;1.25;;;;;;;23.66;39.77;102421.78;5028123;27;97107;-74
2023/05/17 03:29:59;;;;;;;1.10;0.80;;;;;;;23.66;39.94;102426.41;5031642;27;96707;-74
2023/05/17 03:32:26;;;;;;;1.42;0.95;;;;;;;23.65;39.76;102420.06;5044904;27;99281;-75
2023/05/17 03:34:52;;;;;;;1.90;0.90;;;;;;;23.66;40.07;102424.53;5029883;27;97393;-74
2023/05/17 03:37:19;;;;;;;2.35;0.70;;;;;;;23.66;39.71;102421.78;5032536;27;97723;-74
2023/05/17 03:39:47;;;;;;;1.73;0.93;;;;;;;23.64;39.96;102426.56;5046509;27;96884;-74
2023/05/17 03:42:14;;;;;;;1.52;0.90;;;;;;;23.65;39.97;102427.44;5028048;27;98607;-74
2023/05/17 03:44:41;;;;;;;1.40;0.75;;;;;;;23.65;39.96;102432.94;5043323;27;97927;-74
2023/05/17 03:47:07;;;;;;;2.03;0.80;;;;;;;23.65;39.79;102435.66;5031459;27;96918;-74
2023/05/17 03:49:34;;;;;;;1.63;0.88;;;;;;;23.65;40.10;102443.91;5032043;27;96514;-74
2023/05/17 03:52:02;;;;;;;1.70;1.17;;;;;;;23.64;39.96;102436.69;5044626;27;99329;-74
2023/05/17 03:54:28;;;;;;;1.38;0.85;;;;;;;23.65;39.83;102446.66;5023784;27;98147;-74
2023/05/17 03:56:55;;;;;;;1.20;0.75;;;;;;;23.65;40.01;102441.16;5016312;27;96868;-74
2023/05/17 03:59:22;;;;;;;2.08;1.08;;;;;;;23.64;39.94;102440.28;5046537;27;96956;-74
2023/05/17 04:01:49;;;;;;;2.00;1.10;;;;;;;23.63;39.89;102441.31;5015200;27;98096;-74
2023/05/17 04:04:16;;;;;;;1.13;0.70;;;;;;;23.63;39.80;102444.06;5038692;27;98271;-74
2023/05/17 04:06:44;;;;;;;1.83;0.90;;;;;;;23.63;40.10;102444.06;5044823;27;97343;-74
2023/05/17 04:09:12;;;;;;;1.27;0.80;;;;;;;23.63;39.76;102448.69;5036406;27;97192;-74
2023/05/17 04:11:39;;;;;;;1.85;0.95;;;;;;;23.62;39.92;102445.06;5032255;27;98284;-74
2023/05/17 04:14:06;;;;;;;2.17;0.93;;;;;;;23.63;39.94;102446.78;5044934;27;97492;-74
2023/05/17 04:16:33;;;;;;;2.53;0.98;;;;;;;23.63;39.71;102448.69;5029219;27;97114;-74
2023/05/17 04:19:00;;;;;;;2.47;1.15;;;;;;;23.63;40.10;102454.16;5034094;27;96693;-74
2023/05/17 04:21:28;;;;;;;1.40;0.88;;;;;;;23.62;39.65;102460.66;5030756;27;96905;-74
2023/05/17 04:23:55;;;;;;;1.20;0.68;;;;;;;23.62;40.02;102458.78;5044063;27;98139;-74
2023/05/17 04:26:21;;;;;;;1.63;0.85;;;;;;;23.61;39.65;102465.28;5030168;27;96821;-74
2023/05/17 04:28:48;;;;;;;2.00;0.80;;;;;;;23.61;39.63;102467.16;5040452;27;96887;-74
2023/05/17 04:31:16;;;;;;;1.90;1.02;;;;;;;23.61;39.69;102476.25;5046637;27;99973;-74
2023/05/17 04:33:44;;;;;;;2.20;1.20;;;;;;;23.60;39.75;102474.53;5043850;27;99104;-74
2023/05/17 04:36:11;;;;;;;1.58;0.95;;;;;;;23.61;39.74;102481.75;5029729;27;96720;-75
2023/05/17 04:38:39;;;;;;;1.63;1.02;;;;;;;23.61;39.86;102481.75;5030250;27;96688;-75
2023/05/17 04:41:08;;;;;;;1.20;0.90;;;;;;;23.60;39.97;102485.50;5033032;27;100444;-74
2023/05/17 04:43:37;;;;;;;1.17;0.80;;;;;;;23.60;39.75;102491.00;5031746;27;100147;-74
2023/05/17 04:46:07;;;;;;;1.67;1.00;;;;;;;23.60;39.78;102495.63;5044233;27;96915;-74
2023/05/17 04:48:34;;;;;;;1.58;0.75;;;;;;;23.60;39.77;102504.72;5041489;27;97359;-74
2023/05/17 04:51:05;;;;;;;1.42;0.95;;;;;;;23.61;39.83;102508.31;5030192;27;97547;-76
2023/05/17 04:53:32;;;;;;;1.30;0.80;;;;;;;23.60;39.78;102503.84;5031224;27;97159;-75
2023/05/17 04:56:05;;;;;;;3.40;1.13;;;;;;;23.59;39.67;102510.34;5019914;27;96799;-75
2023/05/17 04:58:32;;;;;;;2.25;1.08;;;;;;;23.59;39.68;102513.09;5032905;27;97096;-75
2023/05/17 05:01:00;;;;;;;1.45;0.77;;;;;;;23.59;39.91;102515.84;5042645;27;98145;-75
2023/05/17 05:03:28;;;;;;;2.00;0.95;;;;;;;23.57;39.66;102513.25;5029119;27;98486;-75
2023/05/17 05:05:55;;;;;;;1.45;0.93;;;;;;;23.58;39.66;102514.09;5047207;27;97059;-76
2023/05/17 05:08:22;;;;;;;1.50;0.85;;;;;;;23.58;39.93;102517.72;5044624;27;96891;-76
2023/05/17 05:10:50;;;;;;;1.67;0.95;;;;;;;23.58;39.72;102514.09;5044531;27;99369;-75
2023/05/17 05:13:21;;;;;;;1.35;1.00;;;;;;;23.59;39.69;102518.56;5028724;27;98859;-76
2023/05/17 05:15:49;;;;;;;2.80;1.20;;;;;;;23.57;39.81;102521.47;5029660;27;97106;-75
2023/05/17 05:18:16;;;;;;;1.50;1.10;;;;;;;23.58;39.73;102522.34;5027030;27;97414;-75
2023/05/17 05:20:45;;;;;;;2.13;0.80;;;;;;;23.59;39.92;102526.81;5043803;27;99664;-75
2023/05/17 05:23:12;;;;;;;2.60;1.20;;;;;;;23.59;39.49;102532.28;5027961;27;96958;-75
2023/05/17 05:25:42;;;;;;;1.55;0.80;;;;;;;23.59;39.56;102529.53;5036614;27;96735;-75
2023/05/17 05:28:10;;;;;;;1.52;1.00;;;;;;;23.58;39.86;102538.78;5034499;27;97422;-75
2023/05/17 05:30:38;;;;;;;1.85;0.73;;;;;;;23.58;39.72;102547.03;5030785;27;97313;-75
2023/05/17 05:33:05;;;;;;;1.35;0.90;;;;;;;23.57;39.85;102540.66;5040709;27;97073;-76
2023/05/17 05:35:33;;;;;;;1.95;0.90;;;;;;;23.58;39.64;102544.28;5030241;27;97416;-75
2023/05/17 05:38:00;;;;;;;1.70;0.98;;;;;;;23.58;39.66;102541.53;5036624;27;96871;-75
2023/05/17 05:40:26;;;;;;;1.40;0.75;;;;;;;23.58;39.72;102545.13;5040235;27;97491;-75
2023/05/17 05:42:55;;;;;;;1.88;1.02;;;;;;;23.58;39.79;102541.53;5026609;27;99547;-75
2023/05/17 05:45:21;;;;;;;2.05;0.90;;;;;;;23.58;39.98;102547.03;5030580;27;97916;-75
2023/05/17 05:47:50;;;;;;;1.38;0.80;;;;;;;23.58;39.85;102547.88;5035268;27;97090;-75
2023/05/17 05:50:17;;;;;;;1.02;0.80;;;;;;;23.59;39.69;102554.22;5031139;27;97584;-75
2023/05/17 05:52:45;;;;;;;1.88;1.00;;;;;;;23.57;39.69;102548.91;5034829;27;97014;-75
2023/05/17 05:55:12;;;;;;;1.63;1.02;;;;;;;23.59;39.60;102559.72;5039028;27;96831;-75
2023/05/17 05:57:38;;;;;;;1.48;1.02;;;;;;;23.59;39.13;102562.47;5029027;27;96771;-75
2023/05/17 06:00:06;;;;;;;1.48;0.80;;;;;;;23.59;39.72;102560.56;5039931;27;99481;-75
2023/05/17 06:02:38;;;;;;;1.40;0.85;;;;;;;23.59;39.31;102577.03;5032402;27;97120;-75
2023/05/17 06:05:05;;;;;;;1.23;0.80;;;;;;;23.59;39.54;102573.44;5038168;27;96879;-76
2023/05/17 06:07:32;;;;;;;1.73;0.90;;;;;;;23.59;39.71;102584.41;5034028;27;96898;-75
2023/05/17 06:09:59;;;;;;;1.42;1.00;;;;;;;23.60;39.51;102583.38;5033556;27;97734;-75
2023/05/17 06:12:25;;;;;;;1.80;0.95;;;;;;;23.59;39.73;102581.66;5039538;27;97478;-75
2023/05/17 06:14:52;;;;;;;1.65;0.90;;;;;;;23.60;39.79;102588.88;5033379;27;96700;-74
2023/05/17 06:17:20;;;;;;;2.13;1.00;;;;;;;23.59;39.63;102590.75;5033384;27;96673;-75
2023/05/17 06:19:48;;;;;;;1.90;1.30;;;;;;;23.60;39.83;102591.63;5034777;27;97152;-75
2023/05/17 06:22:15;;;;;;;2.10;1.02;;;;;;;23.60;39.84;102592.47;5031976;27;96759;-75
2023/05/17 06:24:41;;;;;;;1.52;0.68;;;;;;;23.60;39.58;102605.31;5034968;27;97096;-75
2023/05/17 06:27:08;;;;;;;1.58;0.82;;;;;;;23.61;39.75;102601.56;5035043;27;97377;-75
2023/05/17 06:29:35;;;;;;;1.88;1.20;;;;;;;23.60;39.57;102603.44;5033220;27;96819;-72
2023/05/17 06:32:01;;;;;;;1.58;0.90;;;;;;;23.61;39.71;102601.56;5033269;27;97285;-72
2023/05/17 06:34:28;;;;;;;2.15;0.95;;;;;;;23.61;39.74;102607.06;5030923;27;97318;-72
2023/05/17 06:36:54;;;;;;;1.98;1.08;;;;;;;23.62;39.70;102606.03;5032583;27;96965;-72
2023/05/17 06:39:21;;;;;;;2.45;1.00;;;;;;;23.61;39.49;102599.69;5031906;27;96993;-72
2023/05/17 06:41:47;;;;;;;2.03;1.13;;;;;;;23.61;39.77;102607.91;5036508;27;97079;-72
2023/05/17 06:44:16;;;;;;;1.85;0.90;;;;;;;23.62;39.73;102603.28;5031485;27;97156;-73
2023/05/17 06:46:42;;;;;;;1.25;0.80;;;;;;;23.62;39.65;102604.16;5043681;27;97430;-72
2023/05/17 06:49:09;;;;;;;2.03;0.95;;;;;;;23.63;39.86;102613.25;5038159;27;98118;-74
2023/05/17 06:51:36;;;;;;;2.05;0.95;;;;;;;23.63;39.50;102613.25;5041046;27;97113;-76
2023/05/17 06:54:02;;;;;;;3.05;1.30;;;;;;;23.63;39.72;102611.38;5036883;27;98964;-75
2023/05/17 06:56:29;;;;;;;1.27;0.98;;;;;;;23.63;39.65;102607.75;5036257;27;96887;-74
2023/05/17 06:58:55;;;;;;;1.92;1.10;;;;;;;23.63;39.72;102610.50;5043452;27;96855;-74
2023/05/17 07:01:22;;;;;;;1.70;1.25;;;;;;;23.63;39.80;102607.75;5032735;27;97139;-74
2023/05/17 07:03:48;;;;;;;1.95;0.95;;;;;;;23.64;39.71;102609.50;5035122;27;96892;-75
2023/05/17 07:06:15;;;;;;;1.80;0.93;;;;;;;23.64;39.97;102606.75;5033626;27;96935;-75
2023/05/17 07:08:43;;;;;;;4.57;1.10;;;;;;;23.64;39.73;102613.09;5031509;27;96953;-75
2023/05/17 07:11:09;;;;;;;2.80;1.00;;;;;;;23.64;39.66;102610.34;5037461;27;96790;-74
2023/05/17 07:13:36;;;;;;;3.38;1.50;;;;;;;23.65;39.55;102611.22;5031088;27;97128;-75
2023/05/17 07:16:03;;;;;;;3.10;1.40;;;;;;;23.64;39.84;102606.75;5034548;27;96889;-74
2023/05/17 07:18:29;;;;;;;4.78;1.30;;;;;;;23.66;39.34;102615.69;5035007;27;96811;-74
2023/05/17 07:20:56;;;;;;;1.92;0.95;;;;;;;23.66;39.75;102612.94;5033615;27;97292;-74
2023/05/17 07:23:23;;;;;;;2.15;1.10;;;;;;;23.66;39.45;102623.91;5031402;27;97074;-74
2023/05/17 07:25:49;;;;;;;3.08;1.35;;;;;;;23.66;39.87;102624.78;5033837;27;97021;-74
2023/05/17 07:28:16;;;;;;;2.22;1.30;;;;;;;23.66;39.71;102624.78;5034695;27;97752;-74
2023/05/17 07:30:43;;;;;;;2.60;1.15;;;;;;;23.67;39.75;102634.75;5036972;27;98809;-75
2023/05/17 07:33:10;;;;;;;2.80;1.40;;;;;;;23.68;39.62;102636.47;5041755;27;98597;-75
2023/05/17 07:35:36;;;;;;;2.60;1.23;;;;;;;23.68;39.57;102638.34;5044824;27;97297;-74
2023/05/17 07:38:03;;;;;;;3.90;1.58;;;;;;;23.68;39.65;102641.97;5045755;27;98187;-75
2023/05/17 07:40:29;;;;;;;2.50;1.30;;;;;;;23.68;39.54;102643.84;5060481;27;97588;-75
2023/05/17 07:42:56;;;;;;;4.28;1.30;;;;;;;23.68;39.61;102639.22;5045464;27;97380;-75
2023/05/17 07:45:23;;;;;;;3.13;1.20;;;;;;;23.68;39.34;102639.22;5048335;27;98210;-74
2023/05/17 07:47:49;;;;;;;3.45;1.40;;;;;;;23.70;39.24;102639.06;5050592;27;98483;-75
2023/05/17 07:50:18;;;;;;;2.45;1.38;;;;;;;23.68;39.58;102644.69;5050186;27;97265;-74
2023/05/17 07:52:45;;;;;;;8.02;1.70;;;;;;;23.70;39.79;102650.03;5048740;27;97135;-75
2023/05/17 07:55:11;;;;;;;3.35;1.45;;;;;;;23.69;39.79;102654.66;5051024;27;97337;-75
2023/05/17 07:57:41;;;;;;;3.17;1.10;;;;;;;23.69;39.62;102657.41;5050145;27;97495;-75
2023/05/17 08:00:11;;;;;;;2.63;1.10;;;;;;;23.70;39.74;102656.38;5050845;27;97154;-75
2023/05/17 08:02:39;;;;;;;4.15;1.73;;;;;;;23.70;39.46;102656.38;5051108;27;96599;-72
2023/05/17 08:05:07;;;;;;;2.88;1.30;;;;;;;23.70;39.59;102658.25;5050269;27;96885;-72
2023/05/17 08:07:34;;;;;;;3.75;1.40;;;;;;;23.71;39.40;102663.59;5048481;27;97546;-72
2023/05/17 08:10:00;;;;;;;5.18;1.70;;;;;;;23.70;39.44;102659.13;5048496;27;97383;-72
2023/05/17 08:12:27;;;;;;;3.75;1.58;;;;;;;23.70;39.24;102661.88;5049899;27;97132;-72
2023/05/17 08:14:53;;;;;;;4.28;1.42;;;;;;;23.71;39.31;102660.00;5043961;27;97158;-72
2023/05/17 08:17:21;;;;;;;4.22;1.58;;;;;;;23.72;39.05;102661.72;5032068;27;97372;-72
2023/05/17 08:19:47;;;;;;;4.55;1.35;;;;;;;23.71;39.27;102663.59;5050397;27;96907;-72
2023/05/17 08:22:15;;;;;;;3.90;1.70;;;;;;;23.71;39.38;102669.09;5049706;27;97073;-72
2023/05/17 08:24:44;;;;;;;4.13;1.60;;;;;;;23.71;39.09;102665.47;5043055;27;97349;-72
2023/05/17 08:27:10;;;;;;;4.13;1.60;;;;;;;23.71;38.81;102669.09;5030568;27;97887;-72
2023/05/17 08:29:37;;;;;;;2.97;1.35;;;;;;;23.71;38.85;102666.34;5037894;27;98049;-73
2023/05/17 08:32:06;;;;;;;4.82;1.83;;;;;;;23.71;38.58;102666.34;5042875;27;96624;-73
2023/05/17 08:34:33;;;;;;;4.40;1.70;;;;;;;23.72;38.53;102667.22;5049884;27;96834;-73
2023/05/17 08:37:02;;;;;;;6.18;2.13;;;;;;;23.72;38.88;102669.94;5050201;27;96810;-73
2023/05/17 08:39:30;;;;;;;5.05;1.67;;;;;;;23.72;38.96;102675.44;5050771;27;97219;-73
2023/05/17 08:41:58;;;;;;;3.60;1.70;;;;;;;23.73;38.76;102674.41;5050866;27;96732;-73
2023/05/17 08:44:27;;;;;;;4.18;1.98;;;;;;;23.72;38.81;102661.72;5049845;27;96817;-73
2023/05/17 08:46:55;;;;;;;3.55;1.60;;;;;;;23.72;38.64;102667.22;5050260;27;97277;-73
2023/05/17 08:49:24;;;;;;;4.70;1.77;;;;;;;23.73;38.81;102661.56;5050866;27;97001;-72
2023/05/17 08:51:53;;;;;;;4.53;1.80;;;;;;;23.73;38.90;102672.53;5049946;27;97247;-73
2023/05/17 08:54:19;;;;;;;5.80;1.95;;;;;;;23.74;38.52;102673.41;5049982;27;96999;-73
2023/05/17 08:56:51;;;;;;;3.45;1.85;;;;;;;23.71;38.39;102674.56;5048416;27;97913;-73
2023/05/17 08:59:20;;;;;;;7.20;1.80;;;;;;;23.73;38.21;102677.16;5032820;27;99775;-73
2023/05/17 09:01:50;;;;;;;4.13;1.63;;;;;;;23.72;38.40;102676.31;5051088;27;96645;-73
2023/05/17 09:04:17;;;;;;;3.60;1.80;;;;;;;23.71;38.55;102670.97;5052871;27;96864;-72
2023/05/17 09:06:44;;;;;;;3.75;1.60;;;;;;;23.72;38.12;102680.94;5052442;27;97007;-73
2023/05/17 09:09:11;;;;;;;4.95;1.83;;;;;;;23.72;38.28;102681.78;5050096;27;97493;-73
2023/05/17 09:11:37;;;;;;;4.40;1.52;;;;;;;23.72;37.88;102680.94;5049754;27;96730;-73
2023/05/17 09:14:05;;;;;;;4.93;1.60;;;;;;;23.71;37.99;102682.81;5050448;27;96735;-73
2023/05/17 09:16:36;;;;;;;2.67;1.33;;;;;;;23.72;38.05;102683.66;5049653;27;97049;-72
2023/05/17 09:19:05;;;;;;;4.93;1.60;;;;;;;23.72;37.51;102683.66;5050357;27;96810;-73
2023/05/17 09:21:32;;;;;;;6.68;2.28;;;;;;;23.72;37.63;102675.44;5049756;27;97156;-73
2023/05/17 09:24:02;;;;;;;6.38;2.00;;;;;;;23.70;37.75;102667.34;5050471;27;97061;-73
2023/05/17 09:26:44;;;;;;;4.38;1.67;;;;;;;23.73;37.72;102679.91;5049136;27;97008;-73
2023/05/17 09:29:15;;;;;;;4.43;1.80;;;;;;;23.72;37.57;102678.19;5045848;27;97281;-73
2023/05/17 09:31:43;;;;;;;4.70;1.40;;;;;;;23.71;37.51;102674.56;5048912;27;97270;-73
2023/05/17 09:34:10;;;;;;;4.68;2.00;;;;;;;23.72;37.61;102678.19;5032968;27;97432;-73
2023/05/17 09:36:40;;;;;;;3.25;1.50;;;;;;;23.70;37.54;102674.72;5051477;27;97158;-73
2023/05/17 09:39:11;;;;;;;4.68;1.55;;;;;;;23.72;37.54;102675.44;5053894;27;96768;-73
2023/05/17 09:41:45;;;;;;;4.95;1.70;;;;;;;23.72;37.29;102669.94;5053482;27;96846;-73
2023/05/17 09:44:13;;;;;;;5.68;1.90;;;;;;;23.72;37.58;102670.81;5050962;27;96716;-73
2023/05/17 09:46:46;;;;;;;6.72;1.80;;;;;;;23.71;37.46;102669.09;5050888;27;96891;-73
2023/05/17 09:49:16;;;;;;;2.70;1.45;;;;;;;23.71;37.58;102671.84;5034776;27;98082;-72
2023/05/17 09:51:46;;;;;;;5.25;2.00;;;;;;;23.72;37.46;102675.44;5052076;27;96686;-73
2023/05/17 09:54:12;;;;;;;5.57;1.70;;;;;;;23.71;37.43;102663.59;5051970;27;96807;-73
2023/05/17 09:56:39;;;;;;;6.65;2.00;;;;;;;23.71;37.13;102665.47;5051892;27;97271;-72
2023/05/17 09:59:14;;;;;;;3.05;1.48;;;;;;;23.73;37.16;102671.69;5033678;27;98687;-73
2023/05/17 10:01:43;;;;;;;5.85;1.75;;;;;;;23.72;37.26;102669.94;5052347;27;96868;-73
2023/05/17 10:04:11;;;;;;;3.67;1.50;;;;;;;23.72;37.20;102656.22;5050245;27;96819;-73
2023/05/17 10:06:39;;;;;;;5.25;1.67;;;;;;;23.72;37.49;102664.47;5052137;27;97282;-73
2023/05/17 10:09:12;;;;;;;3.63;1.60;;;;;;;23.73;37.51;102661.56;5049108;27;97545;-73
2023/05/17 10:11:41;;;;;;;4.07;1.60;;;;;;;23.73;37.32;102666.19;5052346;27;97176;-73
2023/05/17 10:14:21;;;;;;;5.22;1.33;;;;;;;23.74;37.12;102665.19;5051148;27;97230;-73
2023/05/17 10:16:49;;;;;;;3.13;1.30;;;;;;;23.74;37.35;102673.41;5051521;27;97157;-73
2023/05/17 10:19:19;;;;;;;4.40;1.70;;;;;;;23.73;37.09;102678.03;5050162;27;100861;-73
2023/05/17 10:21:48;;;;;;;5.75;1.48;;;;;;;23.74;37.13;102677.00;5051229;27;97435;-73
2023/05/17 10:24:15;;;;;;;3.60;1.48;;;;;;;23.75;36.95;102675.13;5051827;27;97049;-73
2023/05/17 10:26:43;;;;;;;9.93;2.22;;;;;;;23.74;37.22;102674.28;5050164;27;96787;-73
2023/05/17 10:29:09;;;;;;;4.10;1.77;;;;;;;23.75;37.06;102669.66;5051989;27;97404;-73
2023/05/17 10:31:36;;;;;;;5.10;1.60;;;;;;;23.75;37.02;102666.91;5051848;27;96831;-73
2023/05/17 10:34:05;;;;;;;3.75;1.20;;;;;;;23.76;37.24;102674.13;5050628;27;97424;-73
2023/05/17 10:36:32;;;;;;;5.65;2.33;;;;;;;23.76;37.07;102665.88;5048788;27;97117;-73
2023/05/17 10:39:01;;;;;;;5.63;1.75;;;;;;;23.76;37.08;102674.97;5051268;27;96837;-73
2023/05/17 10:41:33;;;;;;;3.67;1.63;;;;;;;23.76;37.24;102666.75;5052477;27;96700;-72
2023/05/17 10:44:03;;;;;;;5.15;2.10;;;;;;;23.76;36.97;102660.41;5051988;27;96694;-73
2023/05/17 10:46:30;;;;;;;5.38;1.65;;;;;;;23.76;36.99;102665.88;5050243;27;97208;-73
2023/05/17 10:48:59;;;;;;;2.92;1.40;;;;;;;23.76;36.97;102663.16;5051799;27;97407;-73
2023/05/17 10:51:32;;;;;;;3.47;1.42;;;;;;;23.76;37.33;102663.16;5051486;27;97355;-73
2023/05/17 10:54:03;;;;;;;5.10;1.80;;;;;;;23.76;37.16;102655.78;5050082;27;96602;-73
2023/05/17 10:56:30;;;;;;;4.00;1.33;;;;;;;23.76;37.04;102654.91;5051669;27;97784;-73
2023/05/17 10:59:23;;;;;;;4.30;1.45;;;;;;;23.79;37.05;102653.78;5050574;27;97386;-73
2023/05/17 11:01:56;;;;;;;4.78;1.50;;;;;;;23.77;37.12;102645.66;5050716;27;96810;-73
2023/05/17 11:04:24;;;;;;;3.83;1.45;;;;;;;23.78;37.33;102655.63;5050615;27;97294;-73
2023/05/17 11:07:12;;;;;;;4.97;1.75;;;;;;;23.78;37.01;102644.66;5048799;27;99353;-73
2023/05/17 11:09:39;;;;;;;4.55;1.92;;;;;;;23.77;37.17;102640.19;5047642;27;96906;-73
2023/05/17 11:12:08;;;;;;;6.25;1.70;;;;;;;23.79;37.22;102642.81;5032434;27;97089;-73
2023/05/17 11:14:44;;;;;;;4.35;1.55;;;;;;;23.79;37.30;102635.44;5049079;27;97423;-73
2023/05/17 11:17:19;;;;;;;7.60;1.80;;;;;;;23.80;37.27;102633.56;5050445;27;97022;-73
2023/05/17 11:19:49;;;;;;;4.13;1.75;;;;;;;23.80;37.21;102639.91;5050611;27;96794;-73
2023/05/17 11:22:16;;;;;;;2.67;1.10;;;;;;;23.79;37.25;102637.31;5051816;27;96752;-73
2023/05/17 11:24:44;;;;;;;4.95;1.65;;;;;;;23.80;37.33;102645.41;5051466;27;96742;-73
2023/05/17 11:27:12;;;;;;;3.70;1.17;;;;;;;23.81;37.47;102643.53;5049908;27;97544;-73
2023/05/17 11:29:41;;;;;;;4.13;1.50;;;;;;;23.80;37.38;102639.91;5051530;27;96668;-73